• Join FlightAware (Why Join?)
  • Login
  • US Flag 
06:08AM EDT


 

Airport Tracker/Info


-or-


 

Live Flight TrackerFlight Track Log ✈ SSX923 ✈ 19-Mar-2011 ✈ KDEN - KDRO

Flight Track Log - Related Links

Times and Time Zones

All times are in EDT time to prevent confusion due to time zone crossing. See the SSX923 flight status page for this flight to view local times or setup timezone preferences in your user account.

Time Position Orientation Groundspeed Altitude Reporting Facility
EDT Latitude Longitude Course Direction KTS MPH feet Rate Location/Type
10:37AM 39.7935 -104.6565 279° West  Level FlightAware Approximate
10:38AM 39.8167 -104.8500 218° Southwest 178 205 11,300  Level Denver TRACON
10:39AM 39.7667 -104.9000 169° South 218 251 13,300 2,460 Climbing Denver TRACON
10:40AM 39.7414 -104.8933 193° South 209 241 15,000 2,220 Climbing Denver Center
10:41AM 39.6936 -104.9081 194° South 194 223 16,600 1,680 Climbing Denver Center
10:42AM 39.6397 -104.9256 194° South 199 229 18,400 1,680 Climbing Denver Center
10:43AM 39.5856 -104.9428 191° South 205 236 20,000 1,500 Climbing Denver Center
10:44AM 39.5253 -104.9578 192° South 210 242 21,500 1,380 Climbing Denver Center
10:45AM 39.4631 -104.9753 191° South 225 259 22,800 720 Climbing Denver Center
10:46AM 39.3944 -104.9928 192° South 238 274 23,000 360 Climbing Denver Center
10:47AM 39.3197 -105.0131 192° South 267 307 23,600 480 Climbing Denver Center
10:48AM 39.2428 -105.0336 192° South 282 325 24,000 180 Climbing Denver Center
10:49AM 39.1597 -105.0567 201° Southwest 295 339 24,000  Level Denver Center
10:50AM 39.0808 -105.0956 205° Southwest 295 339 24,000  Level Denver Center
10:51AM 39.0042 -105.1425 204° Southwest 307 353 24,000  Level Denver Center
10:52AM 38.9297 -105.1842 207° Southwest 304 350 24,000  Level Denver Center
10:53AM 38.8656 -105.2253 206° Southwest 279 321 24,000  Level Denver Center
10:54AM 38.7992 -105.2664 203° Southwest 260 299 24,000  Level Denver Center
10:55AM 38.7369 -105.2994 206° Southwest 253 291 24,000  Level Denver Center
10:56AM 38.6789 -105.3350 204° Southwest 253 291 24,000  Level Denver Center
10:57AM 38.6106 -105.3733 204° Southwest 253 291 24,000  Level Denver Center
10:58AM 38.5422 -105.4114 193° South 260 299 24,000  Level Denver Center
10:59AM 38.4756 -105.4308 196° South 275 316 24,000  Level Denver Center
11:00AM 38.4050 -105.4558 195° South 275 316 24,000  Level Denver Center
11:01AM 38.3342 -105.4806 196° South 257 296 24,000  Level Denver Center
11:02AM 38.2594 -105.5081 195° South 262 302 24,000  Level Denver Center
11:03AM 38.1847 -105.5331 194° South 294 338 24,000  Level Denver Center
11:04AM 38.0994 -105.5603 195° South 314 361 24,000  Level Denver Center
11:05AM 38.0119 -105.5906 197° South 314 361 24,000  Level Denver Center
11:06AM 37.9372 -105.6203 195° South 291 335 24,000  Level Denver Center
11:07AM 37.8706 -105.6422 195° South 278 320 24,000  Level Denver Center
11:08AM 37.7917 -105.6694 194° South 290 334 24,000  Level Denver Center
11:09AM 37.7064 -105.6964 195° South 295 339 24,000  Level Denver Center
11:10AM 37.6272 -105.7236 195° South 295 339 24,000  Level Denver Center
11:11AM 37.5567 -105.7478 195° South 300 345 24,000  Level Denver Center
11:12AM 37.4692 -105.7775 196° South 300 345 24,000  Level Denver Center
11:13AM 37.3944 -105.8044 229° Southwest 300 345 24,000  Level Denver Center
11:14AM 37.3447 -105.8753 266° West 285 328 24,000  Level Denver Center
11:15AM 37.3389 -105.9719 263° West 282 325 24,000  Level Denver Center
11:16AM 37.3289 -106.0817 258° West 304 350 24,000  Level Denver Center
11:17AM 37.3125 -106.1781 264° West 298 343 24,000  Level Denver Center
11:18AM 37.3044 -106.2800 262° West 293 337 24,000  Level Denver Center
11:19AM 37.2942 -106.3686 263° West 293 337 24,000  Level Denver Center
11:20AM 37.2839 -106.4703 264° West 293 337 24,000  Level Denver Center
11:21AM 37.2753 -106.5772 264° West 293 337 24,000  Level Denver Center
11:22AM 37.2669 -106.6711 264° West 284 327 24,000 -360 Level Denver Center
11:23AM 37.2606 -106.7467 259° West 258 297 23,300 -840 Descending Denver Center
11:24AM 37.2478 -106.8328 265° West 253 291 22,400 -1,080 Descending Denver Center
11:25AM 37.2411 -106.9239 263° West 253 291 21,200 -1,080 Descending Denver Center
11:26AM 37.2325 -107.0072 262° West 248 285 20,300 -1,200 Descending Denver Center
11:27AM 37.2236 -107.0853 263° West 253 291 18,900 -1,620 Descending Denver Center
11:28AM 37.2147 -107.1817 262° West 258 297 17,100 -1,740 Descending Denver Center
11:29AM 37.2058 -107.2650 262° West 252 290 15,500 -1,680 Descending Denver Center
11:30AM 37.1969 -107.3456 261° West 246 283 13,800 -1,680 Descending Denver Center
11:31AM 37.1881 -107.4158 273° West 237 273 12,200 -1,620 Descending Denver Center
11:32AM 37.1917 -107.4967 273° West 222 255 10,600 -1,320 Descending Denver Center
11:33AM 37.1950 -107.5669 281° West 212 244 9,600 -840 Descending Denver Center
11:34AM 37.2050 -107.6297 278° West 198 228 9,000 -600 Descending Denver Center
11:35AM 37.2106 -107.6792 230° Southwest 173 199 8,500 -840 Descending Denver Center
11:36AM 37.1831 -107.7206 235° Southwest 140 161 7,400 -840 Descending Denver Center
11:37AM 37.1597 -107.7617 235° Southwest 140 161 6,900 -540 Descending Denver Center